sensor_id;sensor_type;location;lat;lon;timestamp;temperature;humidity
23073;DHT22;67971;51.046;3.732;2023-02-28T00:00:29;5.10;99.90
23073;DHT22;67971;51.046;3.732;2023-02-28T00:02:55;5.20;99.90
23073;DHT22;67971;51.046;3.732;2023-02-28T00:05:22;5.00;99.90
23073;DHT22;67971;51.046;3.732;2023-02-28T00:07:49;5.10;99.90
23073;DHT22;67971;51.046;3.732;2023-02-28T00:10:18;5.00;99.90
23073;DHT22;67971;51.046;3.732;2023-02-28T00:12:49;4.80;99.90
23073;DHT22;67971;51.046;3.732;2023-02-28T00:15:15;4.80;99.90
23073;DHT22;67971;51.046;3.732;2023-02-28T00:17:41;4.70;99.90
23073;DHT22;67971;51.046;3.732;2023-02-28T00:20:07;4.70;99.90
23073;DHT22;67971;51.046;3.732;2023-02-28T00:22:34;4.80;99.90
23073;DHT22;67971;51.046;3.732;2023-02-28T00:24:59;4.80;99.90
23073;DHT22;67971;51.046;3.732;2023-02-28T00:27:25;4.80;99.90
23073;DHT22;67971;51.046;3.732;2023-02-28T00:29:51;4.80;99.90
23073;DHT22;67971;51.046;3.732;2023-02-28T00:32:17;4.80;99.90
23073;DHT22;67971;51.046;3.732;2023-02-28T00:34:44;4.80;99.90
23073;DHT22;67971;51.046;3.732;2023-02-28T00:37:10;4.80;99.90
23073;DHT22;67971;51.046;3.732;2023-02-28T00:39:37;4.90;99.90
23073;DHT22;67971;51.046;3.732;2023-02-28T00:42:04;4.80;99.90
23073;DHT22;67971;51.046;3.732;2023-02-28T00:44:30;4.80;99.90
23073;DHT22;67971;51.046;3.732;2023-02-28T00:46:56;4.80;99.90
23073;DHT22;67971;51.046;3.732;2023-02-28T00:49:23;4.60;99.90
23073;DHT22;67971;51.046;3.732;2023-02-28T00:51:49;4.60;99.90
23073;DHT22;67971;51.046;3.732;2023-02-28T00:54:16;4.70;99.90
23073;DHT22;67971;51.046;3.732;2023-02-28T00:56:41;4.80;99.90
23073;DHT22;67971;51.046;3.732;2023-02-28T00:59:07;4.90;99.90
23073;DHT22;67971;51.046;3.732;2023-02-28T01:01:33;4.90;99.90
23073;DHT22;67971;51.046;3.732;2023-02-28T01:03:59;4.90;99.90
23073;DHT22;67971;51.046;3.732;2023-02-28T01:06:24;4.80;99.90
23073;DHT22;67971;51.046;3.732;2023-02-28T01:08:50;4.70;99.90
23073;DHT22;67971;51.046;3.732;2023-02-28T01:11:17;4.80;99.90
23073;DHT22;67971;51.046;3.732;2023-02-28T01:13:44;4.70;99.90
23073;DHT22;67971;51.046;3.732;2023-02-28T01:16:11;4.70;99.90
23073;DHT22;67971;51.046;3.732;2023-02-28T01:18:37;4.70;99.90
23073;DHT22;67971;51.046;3.732;2023-02-28T01:21:08;4.70;99.90
23073;DHT22;67971;51.046;3.732;2023-02-28T01:23:34;4.70;99.90
23073;DHT22;67971;51.046;3.732;2023-02-28T01:26:11;4.70;99.90
23073;DHT22;67971;51.046;3.732;2023-02-28T01:28:37;4.70;99.90
23073;DHT22;67971;51.046;3.732;2023-02-28T01:31:03;4.70;99.90
23073;DHT22;67971;51.046;3.732;2023-02-28T01:33:29;4.70;99.90
23073;DHT22;67971;51.046;3.732;2023-02-28T01:36:04;4.60;99.90
23073;DHT22;67971;51.046;3.732;2023-02-28T01:38:30;4.50;99.90
23073;DHT22;67971;51.046;3.732;2023-02-28T01:40:56;4.50;99.90
23073;DHT22;67971;51.046;3.732;2023-02-28T01:43:30;4.60;99.90
23073;DHT22;67971;51.046;3.732;2023-02-28T01:45:57;4.50;99.90
23073;DHT22;67971;51.046;3.732;2023-02-28T01:48:27;4.50;99.90
23073;DHT22;67971;51.046;3.732;2023-02-28T01:50:56;4.50;99.90
23073;DHT22;67971;51.046;3.732;2023-02-28T01:53:32;4.50;99.90
23073;DHT22;67971;51.046;3.732;2023-02-28T01:55:58;4.50;99.90
23073;DHT22;67971;51.046;3.732;2023-02-28T01:58:24;4.60;99.90
23073;DHT22;67971;51.046;3.732;2023-02-28T02:00:50;4.60;99.90
23073;DHT22;67971;51.046;3.732;2023-02-28T02:03:18;4.60;99.90
23073;DHT22;67971;51.046;3.732;2023-02-28T02:05:45;4.50;99.90
23073;DHT22;67971;51.046;3.732;2023-02-28T02:08:21;4.50;99.90
23073;DHT22;67971;51.046;3.732;2023-02-28T02:10:52;4.50;99.90
23073;DHT22;67971;51.046;3.732;2023-02-28T02:13:36;4.50;99.90
23073;DHT22;67971;51.046;3.732;2023-02-28T02:16:23;4.50;99.90
23073;DHT22;67971;51.046;3.732;2023-02-28T02:19:01;4.40;99.90
23073;DHT22;67971;51.046;3.732;2023-02-28T02:24:23;4.20;99.90
23073;DHT22;67971;51.046;3.732;2023-02-28T02:27:16;4.20;99.90
23073;DHT22;67971;51.046;3.732;2023-02-28T02:35:55;4.20;99.90
23073;DHT22;67971;51.046;3.732;2023-02-28T02:43:40;4.00;99.90
23073;DHT22;67971;51.046;3.732;2023-02-28T02:46:20;4.10;99.90
23073;DHT22;67971;51.046;3.732;2023-02-28T02:48:46;4.20;99.90
23073;DHT22;67971;51.046;3.732;2023-02-28T02:51:17;4.20;99.90
23073;DHT22;67971;51.046;3.732;2023-02-28T02:54:04;4.10;99.90
23073;DHT22;67971;51.046;3.732;2023-02-28T02:56:32;4.10;99.90
23073;DHT22;67971;51.046;3.732;2023-02-28T02:59:15;4.10;99.90
23073;DHT22;67971;51.046;3.732;2023-02-28T03:01:48;4.20;99.90
23073;DHT22;67971;51.046;3.732;2023-02-28T03:04:20;4.20;99.90
23073;DHT22;67971;51.046;3.732;2023-02-28T03:06:46;4.20;99.90
23073;DHT22;67971;51.046;3.732;2023-02-28T03:09:12;4.30;99.90
23073;DHT22;67971;51.046;3.732;2023-02-28T03:11:39;4.30;99.90
23073;DHT22;67971;51.046;3.732;2023-02-28T03:28:15;4.20;99.90
23073;DHT22;67971;51.046;3.732;2023-02-28T03:34:13;4.30;99.90
23073;DHT22;67971;51.046;3.732;2023-02-28T03:36:45;4.20;99.90
23073;DHT22;67971;51.046;3.732;2023-02-28T03:39:37;4.00;99.90
23073;DHT22;67971;51.046;3.732;2023-02-28T03:42:17;4.00;99.90
23073;DHT22;67971;51.046;3.732;2023-02-28T03:45:00;4.20;99.90
23073;DHT22;67971;51.046;3.732;2023-02-28T03:47:36;4.10;99.90
23073;DHT22;67971;51.046;3.732;2023-02-28T03:50:13;4.20;99.90
23073;DHT22;67971;51.046;3.732;2023-02-28T03:52:49;4.20;99.90
23073;DHT22;67971;51.046;3.732;2023-02-28T03:55:16;4.20;99.90
23073;DHT22;67971;51.046;3.732;2023-02-28T04:00:48;4.50;99.90
23073;DHT22;67971;51.046;3.732;2023-02-28T04:03:14;4.70;99.90
23073;DHT22;67971;51.046;3.732;2023-02-28T04:05:54;4.80;99.90
23073;DHT22;67971;51.046;3.732;2023-02-28T04:08:22;4.80;99.90
23073;DHT22;67971;51.046;3.732;2023-02-28T04:11:19;4.70;99.90
23073;DHT22;67971;51.046;3.732;2023-02-28T04:13:45;4.80;99.90
23073;DHT22;67971;51.046;3.732;2023-02-28T04:16:11;4.90;99.90
23073;DHT22;67971;51.046;3.732;2023-02-28T04:18:39;4.90;99.90
23073;DHT22;67971;51.046;3.732;2023-02-28T04:21:06;5.00;99.90
23073;DHT22;67971;51.046;3.732;2023-02-28T04:23:32;5.10;99.90
23073;DHT22;67971;51.046;3.732;2023-02-28T04:25:58;5.10;99.90
23073;DHT22;67971;51.046;3.732;2023-02-28T04:28:23;5.20;99.90
23073;DHT22;67971;51.046;3.732;2023-02-28T04:31:01;5.20;99.90
23073;DHT22;67971;51.046;3.732;2023-02-28T04:33:27;5.30;99.90
23073;DHT22;67971;51.046;3.732;2023-02-28T04:36:04;5.30;99.90
23073;DHT22;67971;51.046;3.732;2023-02-28T04:38:32;5.30;99.90
23073;DHT22;67971;51.046;3.732;2023-02-28T04:40:59;5.40;99.90
23073;DHT22;67971;51.046;3.732;2023-02-28T04:43:26;5.40;99.90
23073;DHT22;67971;51.046;3.732;2023-02-28T04:45:53;5.30;99.90
23073;DHT22;67971;51.046;3.732;2023-02-28T04:48:22;5.30;99.90
23073;DHT22;67971;51.046;3.732;2023-02-28T04:50:48;5.40;99.90
23073;DHT22;67971;51.046;3.732;2023-02-28T04:53:14;5.40;99.90
23073;DHT22;67971;51.046;3.732;2023-02-28T04:55:40;5.50;99.90
23073;DHT22;67971;51.046;3.732;2023-02-28T04:58:06;5.50;99.90
23073;DHT22;67971;51.046;3.732;2023-02-28T05:00:31;5.70;99.90
23073;DHT22;67971;51.046;3.732;2023-02-28T05:02:57;5.70;99.90
23073;DHT22;67971;51.046;3.732;2023-02-28T05:05:23;5.80;99.90
23073;DHT22;67971;51.046;3.732;2023-02-28T05:07:48;5.70;99.90
23073;DHT22;67971;51.046;3.732;2023-02-28T05:10:14;5.40;99.90
23073;DHT22;67971;51.046;3.732;2023-02-28T05:12:40;5.50;99.90
23073;DHT22;67971;51.046;3.732;2023-02-28T05:15:06;5.60;99.90
23073;DHT22;67971;51.046;3.732;2023-02-28T05:17:32;5.50;99.90
23073;DHT22;67971;51.046;3.732;2023-02-28T05:19:57;5.50;99.90
23073;DHT22;67971;51.046;3.732;2023-02-28T05:22:23;5.50;99.90
23073;DHT22;67971;51.046;3.732;2023-02-28T05:24:49;5.30;99.90
23073;DHT22;67971;51.046;3.732;2023-02-28T05:27:14;5.20;99.90
23073;DHT22;67971;51.046;3.732;2023-02-28T05:29:40;5.30;99.90
23073;DHT22;67971;51.046;3.732;2023-02-28T05:32:10;5.40;99.90
23073;DHT22;67971;51.046;3.732;2023-02-28T05:34:37;5.40;99.90
23073;DHT22;67971;51.046;3.732;2023-02-28T05:37:03;5.50;99.90
23073;DHT22;67971;51.046;3.732;2023-02-28T05:39:29;5.50;99.90
23073;DHT22;67971;51.046;3.732;2023-02-28T05:41:54;5.60;99.90
23073;DHT22;67971;51.046;3.732;2023-02-28T05:44:20;5.70;99.90
23073;DHT22;67971;51.046;3.732;2023-02-28T05:46:46;5.70;99.90
23073;DHT22;67971;51.046;3.732;2023-02-28T05:49:11;5.70;99.90
23073;DHT22;67971;51.046;3.732;2023-02-28T05:51:37;5.70;99.90
23073;DHT22;67971;51.046;3.732;2023-02-28T05:54:05;5.80;99.90
23073;DHT22;67971;51.046;3.732;2023-02-28T05:56:31;5.60;99.90
23073;DHT22;67971;51.046;3.732;2023-02-28T05:58:59;5.60;99.90
23073;DHT22;67971;51.046;3.732;2023-02-28T06:01:40;5.60;99.90
23073;DHT22;67971;51.046;3.732;2023-02-28T06:04:08;5.50;99.90
23073;DHT22;67971;51.046;3.732;2023-02-28T06:06:34;5.60;99.90
23073;DHT22;67971;51.046;3.732;2023-02-28T06:09:01;5.40;99.90
23073;DHT22;67971;51.046;3.732;2023-02-28T06:11:27;5.40;99.90
23073;DHT22;67971;51.046;3.732;2023-02-28T06:13:57;5.40;99.90
23073;DHT22;67971;51.046;3.732;2023-02-28T06:16:25;5.50;99.90
23073;DHT22;67971;51.046;3.732;2023-02-28T06:18:51;5.50;99.90
23073;DHT22;67971;51.046;3.732;2023-02-28T06:21:18;5.40;99.90
23073;DHT22;67971;51.046;3.732;2023-02-28T06:23:44;5.50;99.90
23073;DHT22;67971;51.046;3.732;2023-02-28T06:26:10;5.50;99.90
23073;DHT22;67971;51.046;3.732;2023-02-28T06:28:36;5.30;99.90
23073;DHT22;67971;51.046;3.732;2023-02-28T06:31:14;5.40;99.90
23073;DHT22;67971;51.046;3.732;2023-02-28T06:33:41;5.50;99.90
23073;DHT22;67971;51.046;3.732;2023-02-28T06:36:08;5.50;99.90
23073;DHT22;67971;51.046;3.732;2023-02-28T06:38:35;5.50;99.90
23073;DHT22;67971;51.046;3.732;2023-02-28T06:41:01;5.50;99.90
23073;DHT22;67971;51.046;3.732;2023-02-28T06:43:32;5.50;99.90
23073;DHT22;67971;51.046;3.732;2023-02-28T06:46:00;5.60;99.90
23073;DHT22;67971;51.046;3.732;2023-02-28T06:48:27;5.60;99.90
23073;DHT22;67971;51.046;3.732;2023-02-28T06:51:03;5.60;99.90
23073;DHT22;67971;51.046;3.732;2023-02-28T06:53:29;5.60;99.90
23073;DHT22;67971;51.046;3.732;2023-02-28T06:55:54;5.60;99.90
23073;DHT22;67971;51.046;3.732;2023-02-28T06:58:20;5.70;99.90
23073;DHT22;67971;51.046;3.732;2023-02-28T07:00:51;5.80;99.90
23073;DHT22;67971;51.046;3.732;2023-02-28T07:03:17;5.80;99.90
23073;DHT22;67971;51.046;3.732;2023-02-28T07:05:43;5.70;99.90
23073;DHT22;67971;51.046;3.732;2023-02-28T07:08:09;5.60;99.90
23073;DHT22;67971;51.046;3.732;2023-02-28T07:10:37;5.40;99.90
23073;DHT22;67971;51.046;3.732;2023-02-28T07:13:04;5.30;99.90
23073;DHT22;67971;51.046;3.732;2023-02-28T07:15:30;5.30;99.90
23073;DHT22;67971;51.046;3.732;2023-02-28T07:17:56;5.40;99.90
23073;DHT22;67971;51.046;3.732;2023-02-28T07:20:22;5.60;99.90
23073;DHT22;67971;51.046;3.732;2023-02-28T07:22:48;5.50;99.90
23073;DHT22;67971;51.046;3.732;2023-02-28T07:25:25;5.30;99.90
23073;DHT22;67971;51.046;3.732;2023-02-28T07:27:51;5.50;99.90
23073;DHT22;67971;51.046;3.732;2023-02-28T07:30:17;5.60;99.90
23073;DHT22;67971;51.046;3.732;2023-02-28T07:32:43;5.70;99.90
23073;DHT22;67971;51.046;3.732;2023-02-28T07:35:09;5.90;99.90
23073;DHT22;67971;51.046;3.732;2023-02-28T07:37:35;5.80;99.90
23073;DHT22;67971;51.046;3.732;2023-02-28T07:40:06;5.80;99.90
23073;DHT22;67971;51.046;3.732;2023-02-28T07:42:34;5.90;99.90
23073;DHT22;67971;51.046;3.732;2023-02-28T07:45:00;5.90;99.90
23073;DHT22;67971;51.046;3.732;2023-02-28T07:47:26;5.90;99.90
23073;DHT22;67971;51.046;3.732;2023-02-28T07:49:52;6.00;99.90
23073;DHT22;67971;51.046;3.732;2023-02-28T07:52:18;6.20;99.90
23073;DHT22;67971;51.046;3.732;2023-02-28T07:54:43;6.20;99.90
23073;DHT22;67971;51.046;3.732;2023-02-28T07:57:09;6.40;99.90
23073;DHT22;67971;51.046;3.732;2023-02-28T07:59:35;6.40;99.90
23073;DHT22;67971;51.046;3.732;2023-02-28T08:02:00;6.60;99.90
23073;DHT22;67971;51.046;3.732;2023-02-28T08:04:26;6.70;99.90
23073;DHT22;67971;51.046;3.732;2023-02-28T08:06:52;6.70;99.90
23073;DHT22;67971;51.046;3.732;2023-02-28T08:09:19;6.90;99.90
23073;DHT22;67971;51.046;3.732;2023-02-28T08:11:45;7.00;99.90
23073;DHT22;67971;51.046;3.732;2023-02-28T08:14:10;7.20;99.90
23073;DHT22;67971;51.046;3.732;2023-02-28T08:16:41;7.50;99.90
23073;DHT22;67971;51.046;3.732;2023-02-28T08:19:08;7.70;99.90
23073;DHT22;67971;51.046;3.732;2023-02-28T08:21:34;7.70;99.90
23073;DHT22;67971;51.046;3.732;2023-02-28T08:24:00;7.80;99.90
23073;DHT22;67971;51.046;3.732;2023-02-28T08:26:26;8.10;99.90
23073;DHT22;67971;51.046;3.732;2023-02-28T08:28:51;8.30;99.90
23073;DHT22;67971;51.046;3.732;2023-02-28T08:31:17;8.40;99.90
23073;DHT22;67971;51.046;3.732;2023-02-28T08:33:44;8.50;99.90
23073;DHT22;67971;51.046;3.732;2023-02-28T08:36:15;8.30;99.90
23073;DHT22;67971;51.046;3.732;2023-02-28T08:38:41;8.30;99.90
23073;DHT22;67971;51.046;3.732;2023-02-28T08:41:10;8.30;99.90
23073;DHT22;67971;51.046;3.732;2023-02-28T08:43:36;8.00;99.90
23073;DHT22;67971;51.046;3.732;2023-02-28T08:46:02;7.90;99.90
23073;DHT22;67971;51.046;3.732;2023-02-28T08:48:30;7.90;99.90
23073;DHT22;67971;51.046;3.732;2023-02-28T08:51:01;7.80;99.90
23073;DHT22;67971;51.046;3.732;2023-02-28T08:53:27;7.80;99.90
23073;DHT22;67971;51.046;3.732;2023-02-28T08:56:11;7.60;99.90
23073;DHT22;67971;51.046;3.732;2023-02-28T08:58:37;7.70;99.90
23073;DHT22;67971;51.046;3.732;2023-02-28T09:01:11;7.70;99.90
23073;DHT22;67971;51.046;3.732;2023-02-28T09:03:38;7.70;99.90
23073;DHT22;67971;51.046;3.732;2023-02-28T09:06:04;7.70;99.90
23073;DHT22;67971;51.046;3.732;2023-02-28T09:08:31;7.60;99.90
23073;DHT22;67971;51.046;3.732;2023-02-28T09:10:57;7.60;99.90
23073;DHT22;67971;51.046;3.732;2023-02-28T09:13:27;7.50;99.90
23073;DHT22;67971;51.046;3.732;2023-02-28T09:15:53;7.50;99.90
23073;DHT22;67971;51.046;3.732;2023-02-28T09:18:20;7.50;99.90
23073;DHT22;67971;51.046;3.732;2023-02-28T09:20:46;7.20;99.90
23073;DHT22;67971;51.046;3.732;2023-02-28T09:23:12;7.10;99.90
23073;DHT22;67971;51.046;3.732;2023-02-28T09:25:48;7.00;99.90
23073;DHT22;67971;51.046;3.732;2023-02-28T09:28:14;7.00;99.90
23073;DHT22;67971;51.046;3.732;2023-02-28T09:30:49;7.00;99.90
23073;DHT22;67971;51.046;3.732;2023-02-28T09:33:16;6.90;99.90
23073;DHT22;67971;51.046;3.732;2023-02-28T09:35:42;6.80;99.90
23073;DHT22;67971;51.046;3.732;2023-02-28T09:38:09;7.00;99.90
23073;DHT22;67971;51.046;3.732;2023-02-28T09:40:37;7.10;99.90
23073;DHT22;67971;51.046;3.732;2023-02-28T09:43:05;7.20;99.90
23073;DHT22;67971;51.046;3.732;2023-02-28T09:45:35;7.20;99.90
23073;DHT22;67971;51.046;3.732;2023-02-28T09:48:10;7.10;99.90
23073;DHT22;67971;51.046;3.732;2023-02-28T09:50:50;7.20;99.90
23073;DHT22;67971;51.046;3.732;2023-02-28T09:53:29;6.80;99.90
23073;DHT22;67971;51.046;3.732;2023-02-28T09:56:25;6.90;99.90
23073;DHT22;67971;51.046;3.732;2023-02-28T09:59:00;7.00;99.90
23073;DHT22;67971;51.046;3.732;2023-02-28T10:01:42;7.20;99.90
23073;DHT22;67971;51.046;3.732;2023-02-28T10:04:44;7.10;99.90
23073;DHT22;67971;51.046;3.732;2023-02-28T10:10:20;7.00;99.90
23073;DHT22;67971;51.046;3.732;2023-02-28T10:12:47;7.20;99.90
23073;DHT22;67971;51.046;3.732;2023-02-28T10:15:15;7.20;99.90
23073;DHT22;67971;51.046;3.732;2023-02-28T10:17:45;7.10;99.90
23073;DHT22;67971;51.046;3.732;2023-02-28T10:20:15;7.10;99.90
23073;DHT22;67971;51.046;3.732;2023-02-28T10:23:00;7.10;99.90
23073;DHT22;67971;51.046;3.732;2023-02-28T10:25:34;7.50;99.90
23073;DHT22;67971;51.046;3.732;2023-02-28T10:28:14;7.60;99.90
23073;DHT22;67971;51.046;3.732;2023-02-28T10:30:50;7.80;99.90
23073;DHT22;67971;51.046;3.732;2023-02-28T10:33:32;8.00;99.90
23073;DHT22;67971;51.046;3.732;2023-02-28T10:36:00;8.20;99.90
23073;DHT22;67971;51.046;3.732;2023-02-28T10:38:38;8.30;99.90
23073;DHT22;67971;51.046;3.732;2023-02-28T10:41:16;8.50;99.90
23073;DHT22;67971;51.046;3.732;2023-02-28T10:43:43;8.60;99.90
23073;DHT22;67971;51.046;3.732;2023-02-28T10:48:45;9.30;99.90
23073;DHT22;67971;51.046;3.732;2023-02-28T10:51:16;9.60;99.90
23073;DHT22;67971;51.046;3.732;2023-02-28T10:53:51;10.10;99.90
23073;DHT22;67971;51.046;3.732;2023-02-28T10:56:23;10.50;99.90
23073;DHT22;67971;51.046;3.732;2023-02-28T11:01:21;12.50;99.50
23073;DHT22;67971;51.046;3.732;2023-02-28T11:03:48;14.70;97.40
23073;DHT22;67971;51.046;3.732;2023-02-28T11:06:22;17.00;92.70
23073;DHT22;67971;51.046;3.732;2023-02-28T11:08:52;19.60;87.50
23073;DHT22;67971;51.046;3.732;2023-02-28T11:11:19;20.40;77.70
23073;DHT22;67971;51.046;3.732;2023-02-28T11:13:47;20.60;74.70
23073;DHT22;67971;51.046;3.732;2023-02-28T11:16:14;20.50;72.10
23073;DHT22;67971;51.046;3.732;2023-02-28T11:18:52;20.80;72.10
23073;DHT22;67971;51.046;3.732;2023-02-28T11:21:34;21.10;69.00
23073;DHT22;67971;51.046;3.732;2023-02-28T11:24:04;20.60;68.50
23073;DHT22;67971;51.046;3.732;2023-02-28T11:26:38;20.50;68.50
23073;DHT22;67971;51.046;3.732;2023-02-28T11:29:19;21.20;68.50
23073;DHT22;67971;51.046;3.732;2023-02-28T11:32:02;23.10;64.70
23073;DHT22;67971;51.046;3.732;2023-02-28T11:34:29;24.50;61.40
23073;DHT22;67971;51.046;3.732;2023-02-28T11:36:57;25.60;60.00
23073;DHT22;67971;51.046;3.732;2023-02-28T11:39:25;26.00;57.70
23073;DHT22;67971;51.046;3.732;2023-02-28T11:53:01;24.70;54.90
23073;DHT22;67971;51.046;3.732;2023-02-28T11:55:36;24.30;55.90
23073;DHT22;67971;51.046;3.732;2023-02-28T12:01:07;25.40;53.50
23073;DHT22;67971;51.046;3.732;2023-02-28T12:06:42;26.60;52.70
23073;DHT22;67971;51.046;3.732;2023-02-28T12:11:58;26.40;51.80
23073;DHT22;67971;51.046;3.732;2023-02-28T12:14:37;25.50;51.80
23073;DHT22;67971;51.046;3.732;2023-02-28T12:19:58;25.70;52.10
23073;DHT22;67971;51.046;3.732;2023-02-28T12:27:34;23.10;51.10
23073;DHT22;67971;51.046;3.732;2023-02-28T12:30:13;23.50;53.30
23073;DHT22;67971;51.046;3.732;2023-02-28T12:32:47;25.00;52.90
23073;DHT22;67971;51.046;3.732;2023-02-28T12:35:18;26.10;50.30
23073;DHT22;67971;51.046;3.732;2023-02-28T12:37:49;25.90;49.20
23073;DHT22;67971;51.046;3.732;2023-02-28T12:40:20;25.70;49.40
23073;DHT22;67971;51.046;3.732;2023-02-28T12:42:56;26.00;50.20
23073;DHT22;67971;51.046;3.732;2023-02-28T12:45:26;27.20;48.30
23073;DHT22;67971;51.046;3.732;2023-02-28T12:48:02;25.80;48.40
23073;DHT22;67971;51.046;3.732;2023-02-28T12:50:29;26.30;48.10
23073;DHT22;67971;51.046;3.732;2023-02-28T12:56:02;25.50;48.30
23073;DHT22;67971;51.046;3.732;2023-02-28T12:58:47;26.00;48.40
23073;DHT22;67971;51.046;3.732;2023-02-28T13:14:16;25.60;48.00
23073;DHT22;67971;51.046;3.732;2023-02-28T13:17:01;24.90;47.20
23073;DHT22;67971;51.046;3.732;2023-02-28T13:19:30;26.10;47.50
23073;DHT22;67971;51.046;3.732;2023-02-28T13:21:57;27.40;46.90
23073;DHT22;67971;51.046;3.732;2023-02-28T13:29:42;24.50;46.20
23073;DHT22;67971;51.046;3.732;2023-02-28T13:40:30;23.70;47.90
23073;DHT22;67971;51.046;3.732;2023-02-28T13:43:02;25.50;47.20
23073;DHT22;67971;51.046;3.732;2023-02-28T13:45:28;26.90;45.10
23073;DHT22;67971;51.046;3.732;2023-02-28T13:47:59;26.10;45.50
23073;DHT22;67971;51.046;3.732;2023-02-28T14:01:38;23.80;46.30
23073;DHT22;67971;51.046;3.732;2023-02-28T14:06:38;23.20;46.60
23073;DHT22;67971;51.046;3.732;2023-02-28T14:11:39;24.00;46.70
23073;DHT22;67971;51.046;3.732;2023-02-28T14:14:08;24.40;46.50
23073;DHT22;67971;51.046;3.732;2023-02-28T14:16:48;24.00;46.00
23073;DHT22;67971;51.046;3.732;2023-02-28T14:19:30;21.80;47.20
23073;DHT22;67971;51.046;3.732;2023-02-28T14:35:50;20.80;48.50
23073;DHT22;67971;51.046;3.732;2023-02-28T14:38:23;19.90;49.80
23073;DHT22;67971;51.046;3.732;2023-02-28T14:40:52;20.30;49.20
23073;DHT22;67971;51.046;3.732;2023-02-28T14:43:22;21.10;50.20
23073;DHT22;67971;51.046;3.732;2023-02-28T14:46:02;21.30;48.00
23073;DHT22;67971;51.046;3.732;2023-02-28T14:48:30;19.90;49.90
23073;DHT22;67971;51.046;3.732;2023-02-28T14:51:01;19.60;50.90
23073;DHT22;67971;51.046;3.732;2023-02-28T14:53:35;20.30;50.80
23073;DHT22;67971;51.046;3.732;2023-02-28T14:56:01;20.60;50.40
23073;DHT22;67971;51.046;3.732;2023-02-28T14:58:33;20.60;50.70
23073;DHT22;67971;51.046;3.732;2023-02-28T15:01:01;20.50;49.60
23073;DHT22;67971;51.046;3.732;2023-02-28T15:03:32;20.10;49.20
23073;DHT22;67971;51.046;3.732;2023-02-28T15:06:00;20.00;50.80
23073;DHT22;67971;51.046;3.732;2023-02-28T15:08:28;19.90;51.10
23073;DHT22;67971;51.046;3.732;2023-02-28T15:11:11;20.30;50.00
23073;DHT22;67971;51.046;3.732;2023-02-28T15:13:46;19.90;50.70
23073;DHT22;67971;51.046;3.732;2023-02-28T15:16:46;20.80;50.60
23073;DHT22;67971;51.046;3.732;2023-02-28T15:19:23;21.20;50.00
23073;DHT22;67971;51.046;3.732;2023-02-28T15:22:14;20.90;49.20
23073;DHT22;67971;51.046;3.732;2023-02-28T15:24:43;20.70;49.60
23073;DHT22;67971;51.046;3.732;2023-02-28T15:27:30;20.20;50.20
23073;DHT22;67971;51.046;3.732;2023-02-28T15:30:06;19.60;51.30
23073;DHT22;67971;51.046;3.732;2023-02-28T15:32:36;19.40;51.60
23073;DHT22;67971;51.046;3.732;2023-02-28T15:38:14;17.90;53.70
23073;DHT22;67971;51.046;3.732;2023-02-28T15:40:41;18.50;53.70
23073;DHT22;67971;51.046;3.732;2023-02-28T15:43:14;18.70;52.30
23073;DHT22;67971;51.046;3.732;2023-02-28T15:45:47;19.30;53.20
23073;DHT22;67971;51.046;3.732;2023-02-28T15:48:24;19.20;52.50
23073;DHT22;67971;51.046;3.732;2023-02-28T15:53:33;18.00;52.50
23073;DHT22;67971;51.046;3.732;2023-02-28T15:56:05;17.60;53.60
23073;DHT22;67971;51.046;3.732;2023-02-28T15:58:32;17.80;54.30
23073;DHT22;67971;51.046;3.732;2023-02-28T16:01:30;18.00;53.20
23073;DHT22;67971;51.046;3.732;2023-02-28T16:04:06;18.20;53.80
23073;DHT22;67971;51.046;3.732;2023-02-28T16:06:38;17.80;53.60
23073;DHT22;67971;51.046;3.732;2023-02-28T16:09:08;16.30;55.20
23073;DHT22;67971;51.046;3.732;2023-02-28T16:11:38;14.90;57.80
23073;DHT22;67971;51.046;3.732;2023-02-28T16:14:19;14.40;58.50
23073;DHT22;67971;51.046;3.732;2023-02-28T16:16:49;14.50;58.60
23073;DHT22;67971;51.046;3.732;2023-02-28T16:19:19;14.30;58.30
23073;DHT22;67971;51.046;3.732;2023-02-28T16:21:45;13.20;59.90
23073;DHT22;67971;51.046;3.732;2023-02-28T16:24:11;12.20;62.50
23073;DHT22;67971;51.046;3.732;2023-02-28T16:26:40;11.90;63.30
23073;DHT22;67971;51.046;3.732;2023-02-28T16:29:08;11.50;65.00
23073;DHT22;67971;51.046;3.732;2023-02-28T16:31:37;10.90;65.10
23073;DHT22;67971;51.046;3.732;2023-02-28T16:34:04;10.50;66.90
23073;DHT22;67971;51.046;3.732;2023-02-28T16:36:30;10.40;67.80
23073;DHT22;67971;51.046;3.732;2023-02-28T16:38:56;10.40;68.50
23073;DHT22;67971;51.046;3.732;2023-02-28T16:41:24;11.00;68.00
23073;DHT22;67971;51.046;3.732;2023-02-28T16:43:53;11.60;66.60
23073;DHT22;67971;51.046;3.732;2023-02-28T16:46:24;11.50;65.80
23073;DHT22;67971;51.046;3.732;2023-02-28T16:48:50;11.30;65.70
23073;DHT22;67971;51.046;3.732;2023-02-28T16:51:17;11.20;66.80
23073;DHT22;67971;51.046;3.732;2023-02-28T16:53:43;11.60;66.50
23073;DHT22;67971;51.046;3.732;2023-02-28T16:56:19;11.90;65.90
23073;DHT22;67971;51.046;3.732;2023-02-28T16:58:46;11.80;65.50
23073;DHT22;67971;51.046;3.732;2023-02-28T17:01:12;11.60;65.10
23073;DHT22;67971;51.046;3.732;2023-02-28T17:03:38;11.30;66.40
23073;DHT22;67971;51.046;3.732;2023-02-28T17:06:06;10.80;67.30
23073;DHT22;67971;51.046;3.732;2023-02-28T17:08:32;10.50;67.70
23073;DHT22;67971;51.046;3.732;2023-02-28T17:10:58;10.40;69.10
23073;DHT22;67971;51.046;3.732;2023-02-28T17:13:24;10.40;69.10
23073;DHT22;67971;51.046;3.732;2023-02-28T17:15:50;10.20;69.90
23073;DHT22;67971;51.046;3.732;2023-02-28T17:18:18;10.00;69.70
23073;DHT22;67971;51.046;3.732;2023-02-28T17:20:47;9.80;70.50
23073;DHT22;67971;51.046;3.732;2023-02-28T17:23:13;9.60;71.20
23073;DHT22;67971;51.046;3.732;2023-02-28T17:25:39;9.50;71.80
23073;DHT22;67971;51.046;3.732;2023-02-28T17:28:05;9.50;71.70
23073;DHT22;67971;51.046;3.732;2023-02-28T17:30:33;9.50;72.10
23073;DHT22;67971;51.046;3.732;2023-02-28T17:33:00;9.40;72.50
23073;DHT22;67971;51.046;3.732;2023-02-28T17:35:26;9.30;72.70
23073;DHT22;67971;51.046;3.732;2023-02-28T17:37:52;9.20;73.10
23073;DHT22;67971;51.046;3.732;2023-02-28T17:40:23;9.10;73.50
23073;DHT22;67971;51.046;3.732;2023-02-28T17:42:49;9.20;74.00
23073;DHT22;67971;51.046;3.732;2023-02-28T17:45:17;9.10;74.50
23073;DHT22;67971;51.046;3.732;2023-02-28T17:47:45;9.10;74.50
23073;DHT22;67971;51.046;3.732;2023-02-28T17:50:21;9.20;74.80
23073;DHT22;67971;51.046;3.732;2023-02-28T17:52:47;9.20;75.10
23073;DHT22;67971;51.046;3.732;2023-02-28T17:55:13;9.10;75.10
23073;DHT22;67971;51.046;3.732;2023-02-28T17:57:40;9.00;75.50
23073;DHT22;67971;51.046;3.732;2023-02-28T18:00:08;9.00;76.20
23073;DHT22;67971;51.046;3.732;2023-02-28T18:02:34;8.90;76.70
23073;DHT22;67971;51.046;3.732;2023-02-28T18:05:00;8.70;77.30
23073;DHT22;67971;51.046;3.732;2023-02-28T18:07:30;8.60;77.70
23073;DHT22;67971;51.046;3.732;2023-02-28T18:09:55;8.50;78.30
23073;DHT22;67971;51.046;3.732;2023-02-28T18:12:21;8.40;78.50
23073;DHT22;67971;51.046;3.732;2023-02-28T18:14:47;8.30;78.70